sensor_id;sensor_type;location;lat;lon;timestamp;P1;P2;P0
51052;PMS5003;37093;37.716;-122.060;2023-04-24T00:01:31;5;2;
51052;PMS5003;37093;37.716;-122.060;2023-04-24T00:04:00;2;2;
51052;PMS5003;37093;37.716;-122.060;2023-04-24T00:06:29;6;3;
51052;PMS5003;37093;37.716;-122.060;2023-04-24T00:08:57;4;3;
51052;PMS5003;37093;37.716;-122.060;2023-04-24T00:11:26;8;3;
51052;PMS5003;37093;37.716;-122.060;2023-04-24T00:13:54;3;3;
51052;PMS5003;37093;37.716;-122.060;2023-04-24T00:16:23;7;4;
51052;PMS5003;37093;37.716;-122.060;2023-04-24T00:18:51;5;4;
51052;PMS5003;37093;37.716;-122.060;2023-04-24T00:21:20;5;3;
51052;PMS5003;37093;37.716;-122.060;2023-04-24T00:23:48;4;4;
51052;PMS5003;37093;37.716;-122.060;2023-04-24T00:26:17;10;3;
51052;PMS5003;37093;37.716;-122.060;2023-04-24T00:28:45;6;4;
51052;PMS5003;37093;37.716;-122.060;2023-04-24T00:31:14;6;3;
51052;PMS5003;37093;37.716;-122.060;2023-04-24T00:33:42;2;2;
51052;PMS5003;37093;37.716;-122.060;2023-04-24T00:36:11;6;3;
51052;PMS5003;37093;37.716;-122.060;2023-04-24T00:38:40;6;2;
51052;PMS5003;37093;37.716;-122.060;2023-04-24T00:41:08;9;4;
51052;PMS5003;37093;37.716;-122.060;2023-04-24T00:43:36;8;5;
51052;PMS5003;37093;37.716;-122.060;2023-04-24T00:46:05;5;2;
51052;PMS5003;37093;37.716;-122.060;2023-04-24T00:48:33;4;4;
51052;PMS5003;37093;37.716;-122.060;2023-04-24T00:51:02;8;4;
51052;PMS5003;37093;37.716;-122.060;2023-04-24T00:53:30;6;4;
51052;PMS5003;37093;37.716;-122.060;2023-04-24T00:55:59;5;4;
51052;PMS5003;37093;37.716;-122.060;2023-04-24T00:58:28;6;6;
51052;PMS5003;37093;37.716;-122.060;2023-04-24T01:00:56;10;4;
51052;PMS5003;37093;37.716;-122.060;2023-04-24T01:03:26;8;4;
51052;PMS5003;37093;37.716;-122.060;2023-04-24T01:06:12;6;5;
51052;PMS5003;37093;37.716;-122.060;2023-04-24T01:08:40;6;3;
51052;PMS5003;37093;37.716;-122.060;2023-04-24T01:11:10;8;3;
51052;PMS5003;37093;37.716;-122.060;2023-04-24T01:13:38;5;4;
51052;PMS5003;37093;37.716;-122.060;2023-04-24T01:16:08;5;5;
51052;PMS5003;37093;37.716;-122.060;2023-04-24T01:18:36;6;4;
51052;PMS5003;37093;37.716;-122.060;2023-04-24T01:21:04;15;5;
51052;PMS5003;37093;37.716;-122.060;2023-04-24T01:23:35;5;4;
51052;PMS5003;37093;37.716;-122.060;2023-04-24T01:26:03;15;4;
51052;PMS5003;37093;37.716;-122.060;2023-04-24T01:28:32;8;3;
51052;PMS5003;37093;37.716;-122.060;2023-04-24T01:31:01;9;5;
51052;PMS5003;37093;37.716;-122.060;2023-04-24T01:33:30;10;5;
51052;PMS5003;37093;37.716;-122.060;2023-04-24T01:35:59;8;6;
51052;PMS5003;37093;37.716;-122.060;2023-04-24T01:38:28;5;4;
51052;PMS5003;37093;37.716;-122.060;2023-04-24T01:40:57;7;4;
51052;PMS5003;37093;37.716;-122.060;2023-04-24T01:43:25;8;5;
51052;PMS5003;37093;37.716;-122.060;2023-04-24T01:45:54;14;5;
51052;PMS5003;37093;37.716;-122.060;2023-04-24T01:48:23;6;5;
51052;PMS5003;37093;37.716;-122.060;2023-04-24T01:50:51;10;5;
51052;PMS5003;37093;37.716;-122.060;2023-04-24T01:53:20;5;4;
51052;PMS5003;37093;37.716;-122.060;2023-04-24T01:55:48;10;4;
51052;PMS5003;37093;37.716;-122.060;2023-04-24T01:58:17;20;9;
51052;PMS5003;37093;37.716;-122.060;2023-04-24T02:00:46;8;4;
51052;PMS5003;37093;37.716;-122.060;2023-04-24T02:03:14;5;5;
51052;PMS5003;37093;37.716;-122.060;2023-04-24T02:05:43;8;3;
51052;PMS5003;37093;37.716;-122.060;2023-04-24T02:08:12;7;6;
51052;PMS5003;37093;37.716;-122.060;2023-04-24T02:10:40;11;7;
51052;PMS5003;37093;37.716;-122.060;2023-04-24T02:13:08;9;5;
51052;PMS5003;37093;37.716;-122.060;2023-04-24T02:15:37;8;6;
51052;PMS5003;37093;37.716;-122.060;2023-04-24T02:18:05;14;6;
51052;PMS5003;37093;37.716;-122.060;2023-04-24T02:20:33;7;5;
51052;PMS5003;37093;37.716;-122.060;2023-04-24T02:23:02;12;5;
51052;PMS5003;37093;37.716;-122.060;2023-04-24T02:25:30;5;5;
51052;PMS5003;37093;37.716;-122.060;2023-04-24T02:27:59;8;6;
51052;PMS5003;37093;37.716;-122.060;2023-04-24T02:30:28;6;5;
51052;PMS5003;37093;37.716;-122.060;2023-04-24T02:32:56;14;4;
51052;PMS5003;37093;37.716;-122.060;2023-04-24T02:35:24;12;6;
51052;PMS5003;37093;37.716;-122.060;2023-04-24T02:37:52;19;3;
51052;PMS5003;37093;37.716;-122.060;2023-04-24T02:40:21;10;6;
51052;PMS5003;37093;37.716;-122.060;2023-04-24T02:42:49;5;5;
51052;PMS5003;37093;37.716;-122.060;2023-04-24T02:45:18;5;3;
51052;PMS5003;37093;37.716;-122.060;2023-04-24T02:47:46;9;7;
51052;PMS5003;37093;37.716;-122.060;2023-04-24T02:50:15;7;4;
51052;PMS5003;37093;37.716;-122.060;2023-04-24T02:52:44;10;4;
51052;PMS5003;37093;37.716;-122.060;2023-04-24T02:55:12;8;5;
51052;PMS5003;37093;37.716;-122.060;2023-04-24T02:57:40;9;6;
51052;PMS5003;37093;37.716;-122.060;2023-04-24T03:00:09;9;5;
51052;PMS5003;37093;37.716;-122.060;2023-04-24T03:02:38;9;5;
51052;PMS5003;37093;37.716;-122.060;2023-04-24T03:05:07;11;4;
51052;PMS5003;37093;37.716;-122.060;2023-04-24T03:07:35;10;4;
51052;PMS5003;37093;37.716;-122.060;2023-04-24T03:10:05;13;7;
51052;PMS5003;37093;37.716;-122.060;2023-04-24T03:12:35;11;6;
51052;PMS5003;37093;37.716;-122.060;2023-04-24T03:15:04;8;4;
51052;PMS5003;37093;37.716;-122.060;2023-04-24T03:17:33;12;9;
51052;PMS5003;37093;37.716;-122.060;2023-04-24T03:20:01;15;3;
51052;PMS5003;37093;37.716;-122.060;2023-04-24T03:22:30;11;5;
51052;PMS5003;37093;37.716;-122.060;2023-04-24T03:24:58;7;6;
51052;PMS5003;37093;37.716;-122.060;2023-04-24T03:27:27;11;6;
51052;PMS5003;37093;37.716;-122.060;2023-04-24T03:29:55;11;5;
51052;PMS5003;37093;37.716;-122.060;2023-04-24T03:32:23;7;3;
51052;PMS5003;37093;37.716;-122.060;2023-04-24T03:34:51;12;4;
51052;PMS5003;37093;37.716;-122.060;2023-04-24T03:37:20;6;5;
51052;PMS5003;37093;37.716;-122.060;2023-04-24T03:39:48;6;6;
51052;PMS5003;37093;37.716;-122.060;2023-04-24T03:42:17;12;8;
51052;PMS5003;37093;37.716;-122.060;2023-04-24T03:44:45;15;7;
51052;PMS5003;37093;37.716;-122.060;2023-04-24T03:47:13;13;6;
51052;PMS5003;37093;37.716;-122.060;2023-04-24T03:49:42;10;8;
51052;PMS5003;37093;37.716;-122.060;2023-04-24T03:52:10;5;4;
51052;PMS5003;37093;37.716;-122.060;2023-04-24T03:54:39;12;7;
51052;PMS5003;37093;37.716;-122.060;2023-04-24T03:57:07;12;5;
51052;PMS5003;37093;37.716;-122.060;2023-04-24T03:59:36;18;8;
51052;PMS5003;37093;37.716;-122.060;2023-04-24T04:02:04;7;6;
51052;PMS5003;37093;37.716;-122.060;2023-04-24T04:04:33;5;5;
51052;PMS5003;37093;37.716;-122.060;2023-04-24T04:07:01;22;6;
51052;PMS5003;37093;37.716;-122.060;2023-04-24T04:09:29;15;6;
51052;PMS5003;37093;37.716;-122.060;2023-04-24T04:11:58;11;4;
51052;PMS5003;37093;37.716;-122.060;2023-04-24T04:14:26;10;7;
51052;PMS5003;37093;37.716;-122.060;2023-04-24T04:16:54;12;6;
51052;PMS5003;37093;37.716;-122.060;2023-04-24T04:19:23;15;7;
51052;PMS5003;37093;37.716;-122.060;2023-04-24T04:21:51;11;6;
51052;PMS5003;37093;37.716;-122.060;2023-04-24T04:24:20;9;6;
51052;PMS5003;37093;37.716;-122.060;2023-04-24T04:26:48;14;6;
51052;PMS5003;37093;37.716;-122.060;2023-04-24T04:29:17;12;5;
51052;PMS5003;37093;37.716;-122.060;2023-04-24T04:31:46;11;5;
51052;PMS5003;37093;37.716;-122.060;2023-04-24T04:34:13;9;5;
51052;PMS5003;37093;37.716;-122.060;2023-04-24T04:36:41;10;7;
51052;PMS5003;37093;37.716;-122.060;2023-04-24T04:39:10;12;9;
51052;PMS5003;37093;37.716;-122.060;2023-04-24T04:41:38;11;6;
51052;PMS5003;37093;37.716;-122.060;2023-04-24T04:44:07;7;6;
51052;PMS5003;37093;37.716;-122.060;2023-04-24T04:46:35;15;8;
51052;PMS5003;37093;37.716;-122.060;2023-04-24T04:49:03;9;6;
51052;PMS5003;37093;37.716;-122.060;2023-04-24T04:51:32;10;6;
51052;PMS5003;37093;37.716;-122.060;2023-04-24T04:54:01;9;5;
51052;PMS5003;37093;37.716;-122.060;2023-04-24T04:56:29;15;7;
51052;PMS5003;37093;37.716;-122.060;2023-04-24T04:58:58;19;9;
51052;PMS5003;37093;37.716;-122.060;2023-04-24T05:01:26;11;7;
51052;PMS5003;37093;37.716;-122.060;2023-04-24T05:03:54;21;7;
51052;PMS5003;37093;37.716;-122.060;2023-04-24T05:06:22;27;9;
51052;PMS5003;37093;37.716;-122.060;2023-04-24T05:08:51;7;6;
51052;PMS5003;37093;37.716;-122.060;2023-04-24T05:11:19;20;7;
51052;PMS5003;37093;37.716;-122.060;2023-04-24T05:13:48;7;7;
51052;PMS5003;37093;37.716;-122.060;2023-04-24T05:16:17;5;5;
51052;PMS5003;37093;37.716;-122.060;2023-04-24T05:18:45;12;9;
51052;PMS5003;37093;37.716;-122.060;2023-04-24T05:21:15;16;5;
51052;PMS5003;37093;37.716;-122.060;2023-04-24T05:23:44;26;9;
51052;PMS5003;37093;37.716;-122.060;2023-04-24T05:26:13;14;7;
51052;PMS5003;37093;37.716;-122.060;2023-04-24T05:28:41;14;11;
51052;PMS5003;37093;37.716;-122.060;2023-04-24T05:31:10;17;9;
51052;PMS5003;37093;37.716;-122.060;2023-04-24T05:33:38;14;7;
51052;PMS5003;37093;37.716;-122.060;2023-04-24T05:36:07;20;7;
51052;PMS5003;37093;37.716;-122.060;2023-04-24T05:38:35;14;9;
51052;PMS5003;37093;37.716;-122.060;2023-04-24T05:41:03;19;9;
51052;PMS5003;37093;37.716;-122.060;2023-04-24T05:43:31;14;7;
51052;PMS5003;37093;37.716;-122.060;2023-04-24T05:45:59;15;8;
51052;PMS5003;37093;37.716;-122.060;2023-04-24T05:48:27;16;11;
51052;PMS5003;37093;37.716;-122.060;2023-04-24T05:50:56;15;10;
51052;PMS5003;37093;37.716;-122.060;2023-04-24T05:53:25;7;6;
51052;PMS5003;37093;37.716;-122.060;2023-04-24T05:55:53;14;6;
51052;PMS5003;37093;37.716;-122.060;2023-04-24T05:58:21;12;7;
51052;PMS5003;37093;37.716;-122.060;2023-04-24T06:00:50;21;10;
51052;PMS5003;37093;37.716;-122.060;2023-04-24T06:03:18;15;7;
51052;PMS5003;37093;37.716;-122.060;2023-04-24T06:05:46;24;9;
51052;PMS5003;37093;37.716;-122.060;2023-04-24T06:08:16;16;8;
51052;PMS5003;37093;37.716;-122.060;2023-04-24T06:10:44;23;8;
51052;PMS5003;37093;37.716;-122.060;2023-04-24T06:13:13;11;8;
51052;PMS5003;37093;37.716;-122.060;2023-04-24T06:15:43;11;7;
51052;PMS5003;37093;37.716;-122.060;2023-04-24T06:18:11;15;9;
51052;PMS5003;37093;37.716;-122.060;2023-04-24T06:20:40;17;10;
51052;PMS5003;37093;37.716;-122.060;2023-04-24T06:23:08;18;10;
51052;PMS5003;37093;37.716;-122.060;2023-04-24T06:25:36;11;8;
51052;PMS5003;37093;37.716;-122.060;2023-04-24T06:28:05;15;9;
51052;PMS5003;37093;37.716;-122.060;2023-04-24T06:30:34;27;10;
51052;PMS5003;37093;37.716;-122.060;2023-04-24T06:33:02;15;8;
51052;PMS5003;37093;37.716;-122.060;2023-04-24T06:35:31;21;10;
51052;PMS5003;37093;37.716;-122.060;2023-04-24T06:37:59;20;9;
51052;PMS5003;37093;37.716;-122.060;2023-04-24T06:40:27;19;8;
51052;PMS5003;37093;37.716;-122.060;2023-04-24T06:42:55;20;12;
51052;PMS5003;37093;37.716;-122.060;2023-04-24T06:45:24;16;11;
51052;PMS5003;37093;37.716;-122.060;2023-04-24T06:47:52;14;10;
51052;PMS5003;37093;37.716;-122.060;2023-04-24T06:50:20;24;12;
51052;PMS5003;37093;37.716;-122.060;2023-04-24T06:52:49;14;8;
51052;PMS5003;37093;37.716;-122.060;2023-04-24T06:55:18;19;9;
51052;PMS5003;37093;37.716;-122.060;2023-04-24T06:57:46;24;12;
51052;PMS5003;37093;37.716;-122.060;2023-04-24T07:01:09;11;7;
51052;PMS5003;37093;37.716;-122.060;2023-04-24T07:03:38;12;11;
51052;PMS5003;37093;37.716;-122.060;2023-04-24T07:06:07;16;9;
51052;PMS5003;37093;37.716;-122.060;2023-04-24T07:08:36;31;12;
51052;PMS5003;37093;37.716;-122.060;2023-04-24T07:11:05;13;11;
51052;PMS5003;37093;37.716;-122.060;2023-04-24T07:13:33;17;9;
51052;PMS5003;37093;37.716;-122.060;2023-04-24T07:16:02;28;14;
51052;PMS5003;37093;37.716;-122.060;2023-04-24T07:18:30;18;8;
51052;PMS5003;37093;37.716;-122.060;2023-04-24T07:20:58;10;10;
51052;PMS5003;37093;37.716;-122.060;2023-04-24T07:23:27;16;11;
51052;PMS5003;37093;37.716;-122.060;2023-04-24T07:25:55;21;12;
51052;PMS5003;37093;37.716;-122.060;2023-04-24T07:28:24;12;9;
51052;PMS5003;37093;37.716;-122.060;2023-04-24T07:30:52;13;8;
51052;PMS5003;37093;37.716;-122.060;2023-04-24T07:33:21;17;12;
51052;PMS5003;37093;37.716;-122.060;2023-04-24T07:35:49;16;11;
51052;PMS5003;37093;37.716;-122.060;2023-04-24T07:38:17;15;10;
51052;PMS5003;37093;37.716;-122.060;2023-04-24T07:40:46;22;10;
51052;PMS5003;37093;37.716;-122.060;2023-04-24T07:43:14;27;13;
51052;PMS5003;37093;37.716;-122.060;2023-04-24T07:45:43;17;10;
51052;PMS5003;37093;37.716;-122.060;2023-04-24T07:48:11;16;8;
51052;PMS5003;37093;37.716;-122.060;2023-04-24T07:50:39;34;11;
51052;PMS5003;37093;37.716;-122.060;2023-04-24T07:53:08;22;10;
51052;PMS5003;37093;37.716;-122.060;2023-04-24T07:55:36;14;7;
51052;PMS5003;37093;37.716;-122.060;2023-04-24T08:34:35;12;8;
51052;PMS5003;37093;37.716;-122.060;2023-04-24T08:37:04;14;9;
51052;PMS5003;37093;37.716;-122.060;2023-04-24T08:39:32;21;10;
51052;PMS5003;37093;37.716;-122.060;2023-04-24T08:42:01;20;8;
51052;PMS5003;37093;37.716;-122.060;2023-04-24T08:44:31;16;9;
51052;PMS5003;37093;37.716;-122.060;2023-04-24T08:47:00;17;10;
51052;PMS5003;37093;37.716;-122.060;2023-04-24T08:49:29;16;7;
51052;PMS5003;37093;37.716;-122.060;2023-04-24T08:52:00;28;11;
51052;PMS5003;37093;37.716;-122.060;2023-04-24T08:54:29;18;11;
51052;PMS5003;37093;37.716;-122.060;2023-04-24T08:56:59;20;7;
51052;PMS5003;37093;37.716;-122.060;2023-04-24T08:59:29;11;7;
51052;PMS5003;37093;37.716;-122.060;2023-04-24T09:01:59;30;10;
51052;PMS5003;37093;37.716;-122.060;2023-04-24T09:04:30;15;10;
51052;PMS5003;37093;37.716;-122.060;2023-04-24T09:07:00;16;12;
51052;PMS5003;37093;37.716;-122.060;2023-04-24T09:09:29;17;8;
51052;PMS5003;37093;37.716;-122.060;2023-04-24T09:11:59;10;6;
51052;PMS5003;37093;37.716;-122.060;2023-04-24T09:14:28;27;11;
51052;PMS5003;37093;37.716;-122.060;2023-04-24T09:16:56;12;7;
51052;PMS5003;37093;37.716;-122.060;2023-04-24T09:19:25;14;7;
51052;PMS5003;37093;37.716;-122.060;2023-04-24T09:21:53;13;9;
51052;PMS5003;37093;37.716;-122.060;2023-04-24T09:24:22;12;10;
51052;PMS5003;37093;37.716;-122.060;2023-04-24T09:26:55;20;12;
51052;PMS5003;37093;37.716;-122.060;2023-04-24T09:29:25;15;8;
51052;PMS5003;37093;37.716;-122.060;2023-04-24T09:31:54;29;10;
51052;PMS5003;37093;37.716;-122.060;2023-04-24T09:34:22;15;7;
51052;PMS5003;37093;37.716;-122.060;2023-04-24T09:36:53;16;8;
51052;PMS5003;37093;37.716;-122.060;2023-04-24T09:39:21;12;9;
51052;PMS5003;37093;37.716;-122.060;2023-04-24T09:41:50;18;9;
51052;PMS5003;37093;37.716;-122.060;2023-04-24T09:44:20;16;7;
51052;PMS5003;37093;37.716;-122.060;2023-04-24T09:46:49;21;12;
51052;PMS5003;37093;37.716;-122.060;2023-04-24T09:49:21;18;11;
51052;PMS5003;37093;37.716;-122.060;2023-04-24T09:51:51;30;10;
51052;PMS5003;37093;37.716;-122.060;2023-04-24T09:54:28;22;7;
51052;PMS5003;37093;37.716;-122.060;2023-04-24T09:56:57;11;8;
51052;PMS5003;37093;37.716;-122.060;2023-04-24T09:59:26;13;10;
51052;PMS5003;37093;37.716;-122.060;2023-04-24T10:01:54;14;10;
51052;PMS5003;37093;37.716;-122.060;2023-04-24T10:04:24;10;8;
51052;PMS5003;37093;37.716;-122.060;2023-04-24T10:06:54;27;12;
51052;PMS5003;37093;37.716;-122.060;2023-04-24T10:09:23;17;11;
51052;PMS5003;37093;37.716;-122.060;2023-04-24T10:11:53;12;8;
51052;PMS5003;37093;37.716;-122.060;2023-04-24T10:14:22;21;9;
51052;PMS5003;37093;37.716;-122.060;2023-04-24T10:16:53;16;8;
51052;PMS5003;37093;37.716;-122.060;2023-04-24T10:19:22;15;10;
51052;PMS5003;37093;37.716;-122.060;2023-04-24T10:21:53;12;10;
51052;PMS5003;37093;37.716;-122.060;2023-04-24T10:24:22;15;11;
51052;PMS5003;37093;37.716;-122.060;2023-04-24T10:26:51;21;9;
51052;PMS5003;37093;37.716;-122.060;2023-04-24T10:29:20;19;11;
51052;PMS5003;37093;37.716;-122.060;2023-04-24T10:31:50;18;12;
51052;PMS5003;37093;37.716;-122.060;2023-04-24T10:34:19;29;13;
51052;PMS5003;37093;37.716;-122.060;2023-04-24T10:36:51;15;12;
51052;PMS5003;37093;37.716;-122.060;2023-04-24T10:39:22;15;11;
51052;PMS5003;37093;37.716;-122.060;2023-04-24T10:41:51;11;11;
51052;PMS5003;37093;37.716;-122.060;2023-04-24T10:44:20;15;12;
51052;PMS5003;37093;37.716;-122.060;2023-04-24T10:46:53;23;13;
51052;PMS5003;37093;37.716;-122.060;2023-04-24T10:49:28;15;11;
51052;PMS5003;37093;37.716;-122.060;2023-04-24T10:52:00;31;13;
51052;PMS5003;37093;37.716;-122.060;2023-04-24T10:54:33;18;10;
51052;PMS5003;37093;37.716;-122.060;2023-04-24T10:57:39;17;11;
51052;PMS5003;37093;37.716;-122.060;2023-04-24T11:00:28;15;10;
51052;PMS5003;37093;37.716;-122.060;2023-04-24T11:02:56;19;11;
51052;PMS5003;37093;37.716;-122.060;2023-04-24T11:05:48;15;14;
51052;PMS5003;37093;37.716;-122.060;2023-04-24T11:08:24;20;11;
51052;PMS5003;37093;37.716;-122.060;2023-04-24T11:10:56;20;10;
51052;PMS5003;37093;37.716;-122.060;2023-04-24T11:13:26;17;13;
51052;PMS5003;37093;37.716;-122.060;2023-04-24T11:16:27;17;13;
51052;PMS5003;37093;37.716;-122.060;2023-04-24T11:19:00;29;13;
51052;PMS5003;37093;37.716;-122.060;2023-04-24T11:21:39;21;12;
51052;PMS5003;37093;37.716;-122.060;2023-04-24T11:24:26;21;12;
51052;PMS5003;37093;37.716;-122.060;2023-04-24T11:26:57;17;12;
51052;PMS5003;37093;37.716;-122.060;2023-04-24T11:29:40;21;13;
51052;PMS5003;37093;37.716;-122.060;2023-04-24T11:32:17;15;13;
51052;PMS5003;37093;37.716;-122.060;2023-04-24T11:34:51;15;11;
51052;PMS5003;37093;37.716;-122.060;2023-04-24T11:37:22;28;13;
51052;PMS5003;37093;37.716;-122.060;2023-04-24T11:39:53;30;13;
51052;PMS5003;37093;37.716;-122.060;2023-04-24T11:42:23;20;13;
51052;PMS5003;37093;37.716;-122.060;2023-04-24T11:44:52;18;10;
51052;PMS5003;37093;37.716;-122.060;2023-04-24T11:47:27;18;11;
51052;PMS5003;37093;37.716;-122.060;2023-04-24T11:49:58;16;10;
51052;PMS5003;37093;37.716;-122.060;2023-04-24T11:52:26;17;13;
51052;PMS5003;37093;37.716;-122.060;2023-04-24T11:54:55;33;14;
51052;PMS5003;37093;37.716;-122.060;2023-04-24T11:57:25;22;15;
51052;PMS5003;37093;37.716;-122.060;2023-04-24T11:59:53;15;11;
51052;PMS5003;37093;37.716;-122.060;2023-04-24T12:02:22;23;12;
51052;PMS5003;37093;37.716;-122.060;2023-04-24T12:04:52;15;14;
51052;PMS5003;37093;37.716;-122.060;2023-04-24T12:07:22;17;11;
51052;PMS5003;37093;37.716;-122.060;2023-04-24T12:09:55;23;14;
51052;PMS5003;37093;37.716;-122.060;2023-04-24T12:12:25;15;12;
51052;PMS5003;37093;37.716;-122.060;2023-04-24T12:14:55;26;17;
51052;PMS5003;37093;37.716;-122.060;2023-04-24T12:17:24;17;11;
51052;PMS5003;37093;37.716;-122.060;2023-04-24T12:19:57;17;12;
51052;PMS5003;37093;37.716;-122.060;2023-04-24T12:22:26;28;12;
51052;PMS5003;37093;37.716;-122.060;2023-04-24T12:24:55;25;14;
51052;PMS5003;37093;37.716;-122.060;2023-04-24T12:27:28;20;11;
51052;PMS5003;37093;37.716;-122.060;2023-04-24T12:29:58;20;14;
51052;PMS5003;37093;37.716;-122.060;2023-04-24T12:32:27;15;11;
51052;PMS5003;37093;37.716;-122.060;2023-04-24T12:34:56;19;12;
51052;PMS5003;37093;37.716;-122.060;2023-04-24T12:37:25;20;13;
51052;PMS5003;37093;37.716;-122.060;2023-04-24T12:40:01;20;13;
51052;PMS5003;37093;37.716;-122.060;2023-04-24T12:42:31;33;12;
51052;PMS5003;37093;37.716;-122.060;2023-04-24T12:45:01;22;13;
51052;PMS5003;37093;37.716;-122.060;2023-04-24T12:47:31;21;13;
51052;PMS5003;37093;37.716;-122.060;2023-04-24T12:50:00;24;13;
51052;PMS5003;37093;37.716;-122.060;2023-04-24T12:52:28;18;14;
51052;PMS5003;37093;37.716;-122.060;2023-04-24T12:54:58;25;18;
51052;PMS5003;37093;37.716;-122.060;2023-04-24T12:57:28;18;11;
51052;PMS5003;37093;37.716;-122.060;2023-04-24T12:59:58;20;15;
51052;PMS5003;37093;37.716;-122.060;2023-04-24T13:02:27;16;12;
51052;PMS5003;37093;37.716;-122.060;2023-04-24T13:04:56;21;13;
51052;PMS5003;37093;37.716;-122.060;2023-04-24T13:07:25;14;12;
51052;PMS5003;37093;37.716;-122.060;2023-04-24T13:09:54;28;14;
51052;PMS5003;37093;37.716;-122.060;2023-04-24T13:12:23;28;17;
51052;PMS5003;37093;37.716;-122.060;2023-04-24T13:14:52;18;12;
51052;PMS5003;37093;37.716;-122.060;2023-04-24T13:17:21;28;14;
51052;PMS5003;37093;37.716;-122.060;2023-04-24T13:19:50;21;12;
51052;PMS5003;37093;37.716;-122.060;2023-04-24T13:22:21;21;12;
51052;PMS5003;37093;37.716;-122.060;2023-04-24T13:24:50;19;13;
51052;PMS5003;37093;37.716;-122.060;2023-04-24T13:27:18;26;14;
51052;PMS5003;37093;37.716;-122.060;2023-04-24T13:29:47;19;11;
51052;PMS5003;37093;37.716;-122.060;2023-04-24T13:32:16;24;12;
51052;PMS5003;37093;37.716;-122.060;2023-04-24T13:34:44;16;13;
51052;PMS5003;37093;37.716;-122.060;2023-04-24T13:37:13;26;13;
51052;PMS5003;37093;37.716;-122.060;2023-04-24T13:39:41;14;11;
51052;PMS5003;37093;37.716;-122.060;2023-04-24T13:42:10;16;11;
51052;PMS5003;37093;37.716;-122.060;2023-04-24T13:44:39;17;11;
51052;PMS5003;37093;37.716;-122.060;2023-04-24T13:47:08;19;13;
51052;PMS5003;37093;37.716;-122.060;2023-04-24T13:49:36;14;12;
51052;PMS5003;37093;37.716;-122.060;2023-04-24T13:52:04;20;13;
51052;PMS5003;37093;37.716;-122.060;2023-04-24T13:54:32;13;10;
51052;PMS5003;37093;37.716;-122.060;2023-04-24T13:57:01;18;10;
51052;PMS5003;37093;37.716;-122.060;2023-04-24T13:59:30;17;13;
51052;PMS5003;37093;37.716;-122.060;2023-04-24T14:01:58;34;12;
51052;PMS5003;37093;37.716;-122.060;2023-04-24T14:04:26;21;11;
51052;PMS5003;37093;37.716;-122.060;2023-04-24T14:06:54;13;10;
51052;PMS5003;37093;37.716;-122.060;2023-04-24T14:09:23;19;13;
51052;PMS5003;37093;37.716;-122.060;2023-04-24T14:11:51;21;12;
51052;PMS5003;37093;37.716;-122.060;2023-04-24T14:14:20;19;11;
51052;PMS5003;37093;37.716;-122.060;2023-04-24T14:16:49;20;14;
51052;PMS5003;37093;37.716;-122.060;2023-04-24T14:19:17;22;12;
51052;PMS5003;37093;37.716;-122.060;2023-04-24T14:21:45;13;10;
51052;PMS5003;37093;37.716;-122.060;2023-04-24T14:24:14;19;11;
51052;PMS5003;37093;37.716;-122.060;2023-04-24T14:26:42;27;13;
51052;PMS5003;37093;37.716;-122.060;2023-04-24T14:29:11;19;13;
51052;PMS5003;37093;37.716;-122.060;2023-04-24T14:31:39;23;13;
51052;PMS5003;37093;37.716;-122.060;2023-04-24T14:34:08;20;11;
51052;PMS5003;37093;37.716;-122.060;2023-04-24T14:36:36;16;11;
51052;PMS5003;37093;37.716;-122.060;2023-04-24T14:39:05;21;13;
51052;PMS5003;37093;37.716;-122.060;2023-04-24T14:41:34;15;10;
51052;PMS5003;37093;37.716;-122.060;2023-04-24T14:44:03;22;12;
51052;PMS5003;37093;37.716;-122.060;2023-04-24T14:46:32;20;14;
51052;PMS5003;37093;37.716;-122.060;2023-04-24T14:49:01;32;14;
51052;PMS5003;37093;37.716;-122.060;2023-04-24T14:51:29;16;10;
51052;PMS5003;37093;37.716;-122.060;2023-04-24T14:53:58;19;12;
51052;PMS5003;37093;37.716;-122.060;2023-04-24T14:56:26;18;13;
51052;PMS5003;37093;37.716;-122.060;2023-04-24T14:58:55;24;11;
51052;PMS5003;37093;37.716;-122.060;2023-04-24T15:01:23;17;10;
51052;PMS5003;37093;37.716;-122.060;2023-04-24T15:03:51;13;8;
51052;PMS5003;37093;37.716;-122.060;2023-04-24T15:06:19;11;10;
51052;PMS5003;37093;37.716;-122.060;2023-04-24T15:08:48;12;9;
51052;PMS5003;37093;37.716;-122.060;2023-04-24T15:11:16;13;10;
51052;PMS5003;37093;37.716;-122.060;2023-04-24T15:13:45;13;8;
51052;PMS5003;37093;37.716;-122.060;2023-04-24T15:16:13;20;8;
51052;PMS5003;37093;37.716;-122.060;2023-04-24T15:18:42;13;9;
51052;PMS5003;37093;37.716;-122.060;2023-04-24T15:21:10;12;10;
51052;PMS5003;37093;37.716;-122.060;2023-04-24T15:23:38;10;9;
51052;PMS5003;37093;37.716;-122.060;2023-04-24T15:26:08;10;7;
51052;PMS5003;37093;37.716;-122.060;2023-04-24T15:28:36;10;7;
51052;PMS5003;37093;37.716;-122.060;2023-04-24T15:31:04;19;12;
51052;PMS5003;37093;37.716;-122.060;2023-04-24T15:33:33;16;10;
51052;PMS5003;37093;37.716;-122.060;2023-04-24T15:36:01;14;9;
51052;PMS5003;37093;37.716;-122.060;2023-04-24T15:38:30;15;10;
51052;PMS5003;37093;37.716;-122.060;2023-04-24T15:40:59;17;8;
51052;PMS5003;37093;37.716;-122.060;2023-04-24T15:43:27;10;6;
51052;PMS5003;37093;37.716;-122.060;2023-04-24T15:45:57;9;3;
51052;PMS5003;37093;37.716;-122.060;2023-04-24T15:48:25;12;9;
51052;PMS5003;37093;37.716;-122.060;2023-04-24T15:50:56;10;9;
51052;PMS5003;37093;37.716;-122.060;2023-04-24T15:53:25;12;9;
51052;PMS5003;37093;37.716;-122.060;2023-04-24T15:55:53;12;7;
51052;PMS5003;37093;37.716;-122.060;2023-04-24T15:58:22;12;8;
51052;PMS5003;37093;37.716;-122.060;2023-04-24T16:00:50;14;9;
51052;PMS5003;37093;37.716;-122.060;2023-04-24T16:03:19;12;9;
51052;PMS5003;37093;37.716;-122.060;2023-04-24T16:05:47;13;8;
51052;PMS5003;37093;37.716;-122.060;2023-04-24T16:08:15;9;6;
51052;PMS5003;37093;37.716;-122.060;2023-04-24T16:10:44;10;7;
51052;PMS5003;37093;37.716;-122.060;2023-04-24T16:13:12;10;7;
51052;PMS5003;37093;37.716;-122.060;2023-04-24T16:15:41;10;6;
51052;PMS5003;37093;37.716;-122.060;2023-04-24T16:18:09;9;6;
51052;PMS5003;37093;37.716;-122.060;2023-04-24T16:20:38;8;6;
51052;PMS5003;37093;37.716;-122.060;2023-04-24T16:23:06;11;6;
51052;PMS5003;37093;37.716;-122.060;2023-04-24T16:25:35;13;6;
51052;PMS5003;37093;37.716;-122.060;2023-04-24T16:28:06;19;9;
51052;PMS5003;37093;37.716;-122.060;2023-04-24T16:30:33;12;8;
51052;PMS5003;37093;37.716;-122.060;2023-04-24T16:33:02;11;6;